createdAt,value
2023-12-22T00:01:08.299Z,98325.56
2023-12-22T00:03:34.966Z,98308.09
2023-12-22T00:06:01.550Z,98311.66
2023-12-22T00:08:27.943Z,98301.03
2023-12-22T00:10:54.382Z,98308.28
2023-12-22T00:13:20.816Z,98258.19
2023-12-22T00:15:47.221Z,98294.06
2023-12-22T00:18:13.712Z,98312.41
2023-12-22T00:20:40.123Z,98325.34
2023-12-22T00:23:06.546Z,98342.69
2023-12-22T00:25:33.024Z,98311.31
2023-12-22T00:27:59.502Z,98280.94
2023-12-22T00:30:26.071Z,98339.16
2023-12-22T00:32:52.555Z,98321.06
2023-12-22T00:35:19.021Z,98347.59
2023-12-22T00:37:45.518Z,98323.78
2023-12-22T00:40:12.163Z,98324.19
2023-12-22T00:42:38.537Z,98330.03
2023-12-22T00:45:05.579Z,98355.59
2023-12-22T00:47:32.140Z,98310.94
2023-12-22T00:49:58.668Z,98335.69
2023-12-22T00:52:25.100Z,98308.16
2023-12-22T00:54:51.658Z,98291.56
2023-12-22T00:57:18.537Z,98350.88
2023-12-22T00:59:48.632Z,98299.25
2023-12-22T01:02:18.742Z,98319.66
2023-12-22T01:04:45.707Z,98358.28
2023-12-22T01:07:12.375Z,98363.91
2023-12-22T01:09:38.866Z,98301.38
2023-12-22T01:12:07.276Z,98344.50
2023-12-22T01:14:34.671Z,98363.84
2023-12-22T01:17:01.440Z,98355.03
2023-12-22T01:19:28.263Z,98335.69
2023-12-22T01:21:54.850Z,98378.59
2023-12-22T01:24:21.350Z,98389.53
2023-12-22T01:26:47.982Z,98300.09
2023-12-22T01:29:14.412Z,98396.06
2023-12-22T01:31:40.946Z,98396.06
2023-12-22T01:34:07.478Z,98329.50
2023-12-22T01:36:35.387Z,98426.25
2023-12-22T01:39:01.848Z,98428.09
2023-12-22T01:41:28.257Z,98423.75
2023-12-22T01:43:54.772Z,98355.56
2023-12-22T01:46:21.807Z,98422.72
2023-12-22T01:48:48.872Z,98434.88
2023-12-22T01:51:15.552Z,98421.81
2023-12-22T01:53:42.167Z,98410.94
2023-12-22T01:56:09.507Z,98421.91
2023-12-22T01:58:37.571Z,98402.50
2023-12-22T02:01:14.895Z,98365.78
2023-12-22T02:03:41.854Z,98366.47
2023-12-22T02:06:08.519Z,98353.03
2023-12-22T02:08:35.964Z,98407.09
2023-12-22T02:11:02.684Z,98399.44
2023-12-22T02:13:29.971Z,98407.22
2023-12-22T02:16:09.906Z,98341.44
2023-12-22T02:18:39.977Z,98374.47
2023-12-22T02:21:06.465Z,98388.69
2023-12-22T02:23:33.089Z,98401.31
2023-12-22T02:26:26.055Z,98373.69
2023-12-22T02:28:55.161Z,98388.50
2023-12-22T02:31:37.182Z,98396.59
2023-12-22T02:34:09.113Z,98323.53
2023-12-22T02:36:37.850Z,98366.47
2023-12-22T02:39:05.621Z,98368.50
2023-12-22T02:41:32.152Z,98374.38
2023-12-22T02:43:58.811Z,98386.44
2023-12-22T02:46:25.280Z,98374.53
2023-12-22T02:48:51.735Z,98366.38
2023-12-22T02:51:18.271Z,98368.66
2023-12-22T02:53:44.637Z,98390.03
2023-12-22T02:56:11.036Z,98427.06
2023-12-22T02:58:37.492Z,98408.16
2023-12-22T03:01:04.179Z,98428.00
2023-12-22T03:03:30.651Z,98418.91
2023-12-22T03:05:57.086Z,98429.53
2023-12-22T03:08:23.583Z,98410.28
2023-12-22T03:10:50.081Z,98397.38
2023-12-22T03:13:16.768Z,98425.69
2023-12-22T03:15:43.176Z,98438.31
2023-12-22T03:18:09.618Z,98364.84
2023-12-22T03:20:36.057Z,98416.50
2023-12-22T03:23:02.633Z,98415.88
2023-12-22T03:25:29.080Z,98360.09
2023-12-22T03:27:55.470Z,98420.06
2023-12-22T03:30:21.936Z,98439.84
2023-12-22T03:32:48.483Z,98342.41
2023-12-22T03:35:15.138Z,98348.78
2023-12-22T03:37:41.539Z,98365.59
2023-12-22T03:40:08.740Z,98382.06
2023-12-22T03:42:35.178Z,98382.97
2023-12-22T03:45:01.566Z,98368.13
2023-12-22T03:47:28.015Z,98391.63
2023-12-22T03:49:54.439Z,98393.94
2023-12-22T03:52:21.112Z,98390.22
2023-12-22T03:54:47.638Z,98316.56
2023-12-22T03:57:14.061Z,98379.78
2023-12-22T03:59:40.504Z,98380.63
2023-12-22T04:02:07.236Z,98297.69
2023-12-22T04:04:33.721Z,98331.53
2023-12-22T04:07:00.112Z,98358.50
2023-12-22T04:09:26.518Z,98382.88
2023-12-22T04:11:52.944Z,98367.19
2023-12-22T04:14:19.789Z,98373.03
2023-12-22T04:16:46.775Z,98313.53
2023-12-22T04:19:13.583Z,98311.88
2023-12-22T04:21:40.227Z,98372.81
2023-12-22T04:24:06.990Z,98368.19
2023-12-22T04:26:33.398Z,98380.47
2023-12-22T04:28:59.958Z,98377.38
2023-12-22T04:31:26.409Z,98331.06
2023-12-22T04:33:52.829Z,98357.72
2023-12-22T04:36:19.320Z,98356.84
2023-12-22T04:38:45.708Z,98353.56
2023-12-22T04:41:12.160Z,98324.81
2023-12-22T04:43:38.616Z,98331.25
2023-12-22T04:46:05.008Z,98387.72
2023-12-22T04:48:31.704Z,98367.03
2023-12-22T04:50:58.196Z,98358.63
2023-12-22T04:53:24.742Z,98349.59
2023-12-22T04:55:51.272Z,98392.47
2023-12-22T04:58:17.800Z,98363.53
2023-12-22T05:00:44.391Z,98351.47
2023-12-22T05:03:10.926Z,98352.25
2023-12-22T05:05:37.364Z,98255.91
2023-12-22T05:08:04.081Z,98302.72
2023-12-22T05:10:30.869Z,98319.19
2023-12-22T05:12:57.318Z,98388.75
2023-12-22T05:15:23.707Z,98402.25
2023-12-22T05:17:50.416Z,98392.47
2023-12-22T05:20:17.613Z,98371.47
2023-12-22T05:22:44.144Z,98413.88
2023-12-22T05:25:11.524Z,98421.53
2023-12-22T05:27:37.995Z,98403.53
2023-12-22T05:30:05.079Z,98411.16
2023-12-22T05:32:31.551Z,98372.63
2023-12-22T05:34:58.118Z,98404.03
2023-12-22T05:37:24.626Z,98422.00
2023-12-22T05:39:51.072Z,98402.66
2023-12-22T05:42:17.800Z,98446.13
2023-12-22T05:44:44.781Z,98419.75
2023-12-22T05:47:11.960Z,98444.47
2023-12-22T05:49:40.720Z,98405.72
2023-12-22T05:52:07.191Z,98490.28
2023-12-22T05:54:33.773Z,98488.78
2023-12-22T05:57:00.716Z,98477.47
2023-12-22T05:59:28.740Z,98424.47
2023-12-22T06:01:55.529Z,98483.31
2023-12-22T06:04:22.107Z,98470.69
2023-12-22T06:06:48.613Z,98502.31
2023-12-22T06:09:15.146Z,98499.78
2023-12-22T06:11:41.571Z,98486.34
2023-12-22T06:14:08.095Z,98486.09
2023-12-22T06:16:34.719Z,98449.84
2023-12-22T06:19:01.211Z,98486.50
2023-12-22T06:21:27.671Z,98451.56
2023-12-22T06:23:54.068Z,98418.88
2023-12-22T06:26:20.502Z,98487.47
2023-12-22T06:28:46.936Z,98493.19
2023-12-22T06:31:21.876Z,98496.66
2023-12-22T06:33:49.501Z,98502.06
2023-12-22T06:36:25.990Z,98460.66
2023-12-22T06:38:54.401Z,98509.72
2023-12-22T06:41:27.997Z,98509.25
2023-12-22T06:43:56.322Z,98522.19
2023-12-22T06:46:24.235Z,98480.34
2023-12-22T06:48:50.883Z,98507.75
2023-12-22T06:51:25.039Z,98528.06
2023-12-22T06:53:51.737Z,98530.66
2023-12-22T06:56:20.965Z,98517.41
2023-12-22T06:58:49.632Z,98497.91
2023-12-22T07:01:20.991Z,98538.44
2023-12-22T07:03:49.282Z,98519.63
2023-12-22T07:06:20.429Z,98487.50
2023-12-22T07:09:15.246Z,98548.56
2023-12-22T07:11:44.065Z,98475.13
2023-12-22T07:14:12.327Z,98527.22
2023-12-22T07:16:39.525Z,98484.31
2023-12-22T07:19:06.515Z,98526.75
2023-12-22T07:21:32.997Z,98528.94
2023-12-22T07:24:00.440Z,98567.28
2023-12-22T07:26:30.226Z,98565.97
2023-12-22T07:28:56.887Z,98595.41
2023-12-22T07:31:23.982Z,98587.38
2023-12-22T07:33:50.580Z,98593.22
2023-12-22T07:36:19.605Z,98628.19
2023-12-22T07:38:46.221Z,98624.94
2023-12-22T07:41:12.823Z,98655.38
2023-12-22T07:43:39.763Z,98603.78
2023-12-22T07:46:06.252Z,98635.00
2023-12-22T07:48:32.920Z,98584.25
2023-12-22T07:50:59.420Z,98631.44
2023-12-22T07:53:25.853Z,98667.59
2023-12-22T07:55:52.325Z,98665.66
2023-12-22T07:58:18.818Z,98678.34
2023-12-22T08:00:45.381Z,98667.97
2023-12-22T08:03:11.812Z,98655.38
2023-12-22T08:05:38.259Z,98683.28
2023-12-22T08:08:05.124Z,98661.56
2023-12-22T08:10:31.604Z,98667.03
2023-12-22T08:12:59.014Z,98629.75
2023-12-22T08:15:33.046Z,98684.47
2023-12-22T08:18:03.367Z,98680.44
2023-12-22T08:20:33.424Z,98659.31
2023-12-22T08:23:06.914Z,98637.78
2023-12-22T08:25:36.592Z,98689.63
2023-12-22T08:28:03.465Z,98703.47
2023-12-22T08:30:29.869Z,98706.34
2023-12-22T08:32:56.447Z,98666.78
2023-12-22T08:35:22.951Z,98722.22
2023-12-22T08:37:49.801Z,98716.25
2023-12-22T08:40:16.436Z,98643.41
2023-12-22T08:42:42.977Z,98666.97
2023-12-22T08:45:09.521Z,98708.69
2023-12-22T08:47:36.024Z,98618.41
2023-12-22T08:50:05.225Z,98715.25
2023-12-22T08:52:31.784Z,98719.94
2023-12-22T08:54:58.185Z,98660.66
2023-12-22T08:57:25.055Z,98593.78
2023-12-22T08:59:51.444Z,98707.19
2023-12-22T09:02:17.860Z,98660.94
2023-12-22T09:04:44.333Z,98679.44
2023-12-22T09:07:11.132Z,98676.56
2023-12-22T09:09:37.561Z,98699.63
2023-12-22T09:12:05.735Z,98652.97
2023-12-22T09:14:32.263Z,98702.63
2023-12-22T09:16:58.699Z,98704.09
2023-12-22T09:19:25.285Z,98649.81
2023-12-22T09:21:51.797Z,98738.72
2023-12-22T09:24:18.212Z,98739.34
2023-12-22T09:26:44.833Z,98717.41
2023-12-22T09:29:11.259Z,98735.22
2023-12-22T09:31:37.811Z,98742.31
2023-12-22T09:34:04.864Z,98719.31
2023-12-22T09:36:31.428Z,98743.97
2023-12-22T09:38:57.832Z,98684.69
2023-12-22T09:41:24.333Z,98730.78
2023-12-22T09:43:51.824Z,98715.75
2023-12-22T09:46:20.708Z,98742.69
2023-12-22T09:48:48.192Z,98716.88
2023-12-22T09:51:15.416Z,98753.56
2023-12-22T09:53:42.910Z,98718.13
2023-12-22T09:56:09.897Z,98760.09
2023-12-22T09:58:37.572Z,98762.19
2023-12-22T10:01:06.614Z,98759.06
2023-12-22T10:03:38.460Z,98760.59
2023-12-22T10:06:05.550Z,98702.25
2023-12-22T10:08:32.546Z,98753.06
2023-12-22T10:10:59.429Z,98748.69
2023-12-22T10:13:29.068Z,98717.31
2023-12-22T10:15:57.008Z,98754.09
2023-12-22T10:18:23.883Z,98701.88
2023-12-22T10:20:50.390Z,98745.00
2023-12-22T10:23:16.785Z,98759.22
2023-12-22T10:25:43.443Z,98715.22
2023-12-22T10:28:12.877Z,98739.91
2023-12-22T10:30:40.936Z,98749.47
2023-12-22T10:33:08.223Z,98745.25
2023-12-22T10:35:34.725Z,98758.88
2023-12-22T10:38:03.705Z,98739.28
2023-12-22T10:40:31.224Z,98739.25
2023-12-22T10:42:58.032Z,98757.44
2023-12-22T10:45:25.738Z,98707.03
2023-12-22T10:47:53.144Z,98764.72
2023-12-22T10:50:25.562Z,98766.59
2023-12-22T10:52:52.886Z,98741.38
2023-12-22T10:55:20.338Z,98791.16
2023-12-22T10:57:48.056Z,98792.03
2023-12-22T11:00:20.856Z,98799.94
2023-12-22T11:02:52.451Z,98811.84
2023-12-22T11:05:19.273Z,98832.69
2023-12-22T11:07:51.220Z,98830.50
2023-12-22T11:10:21.984Z,98834.97
2023-12-22T11:12:49.598Z,98827.34
2023-12-22T11:15:16.254Z,98763.84
2023-12-22T11:17:43.789Z,98827.63
2023-12-22T11:20:11.753Z,98800.94
2023-12-22T11:22:39.954Z,98817.69
2023-12-22T11:25:09.231Z,98827.97
2023-12-22T11:27:38.804Z,98820.97
2023-12-22T11:30:09.848Z,98812.59
2023-12-22T11:32:37.305Z,98796.09
2023-12-22T11:35:05.394Z,98822.50
2023-12-22T11:37:33.276Z,98819.97
2023-12-22T11:39:59.776Z,98746.34
2023-12-22T11:42:33.467Z,98746.09
2023-12-22T11:45:00.121Z,98781.38
2023-12-22T11:47:29.885Z,98752.44
2023-12-22T11:49:56.900Z,98754.47
2023-12-22T11:52:29.437Z,98798.16
2023-12-22T11:54:57.212Z,98778.84
2023-12-22T11:57:29.832Z,98792.81
2023-12-22T11:59:56.792Z,98792.13
2023-12-22T12:02:23.715Z,98781.59
2023-12-22T12:04:51.961Z,98774.88
2023-12-22T12:07:37.428Z,98767.44
2023-12-22T12:10:04.116Z,98759.34
2023-12-22T12:12:32.433Z,98759.25
2023-12-22T12:15:07.989Z,98785.56
2023-12-22T12:17:34.558Z,98777.16
2023-12-22T12:20:01.102Z,98723.69
2023-12-22T12:22:29.181Z,98783.69
2023-12-22T12:24:55.745Z,98770.59
2023-12-22T12:27:22.361Z,98739.47
2023-12-22T12:29:48.934Z,98762.97
2023-12-22T12:32:15.932Z,98772.88
2023-12-22T12:34:45.615Z,98783.53
2023-12-22T12:37:12.261Z,98792.28
2023-12-22T12:39:40.856Z,98794.94
2023-12-22T12:42:08.945Z,98785.25
2023-12-22T12:44:36.602Z,98782.19
2023-12-22T12:47:13.287Z,98765.09
2023-12-22T12:49:39.915Z,98773.22
2023-12-22T12:52:07.225Z,98781.63
2023-12-22T12:54:33.796Z,98761.47
2023-12-22T12:57:00.347Z,98754.75
2023-12-22T12:59:26.771Z,98766.91
2023-12-22T13:01:54.407Z,98779.06
2023-12-22T13:04:20.929Z,98763.63
2023-12-22T13:06:51.070Z,98775.09
2023-12-22T13:09:19.039Z,98752.44
2023-12-22T13:11:49.848Z,98755.00
2023-12-22T13:14:28.992Z,98776.84
2023-12-22T13:16:58.454Z,98767.63
2023-12-22T13:19:26.728Z,98758.22
2023-12-22T13:21:57.119Z,98762.78
2023-12-22T13:24:24.237Z,98759.25
2023-12-22T13:27:02.112Z,98749.97
2023-12-22T13:29:29.537Z,98733.31
2023-12-22T13:31:56.576Z,98749.03
2023-12-22T13:34:23.035Z,98694.97
2023-12-22T13:36:49.607Z,98736.31
2023-12-22T13:39:16.265Z,98745.94
2023-12-22T13:41:46.482Z,98751.03
2023-12-22T13:44:14.032Z,98732.09
2023-12-22T13:46:43.296Z,98757.38
2023-12-22T13:49:11.620Z,98767.25
2023-12-22T13:51:45.927Z,98784.53
2023-12-22T13:54:12.837Z,98762.38
2023-12-22T13:56:43.732Z,98762.94
2023-12-22T13:59:10.991Z,98767.16
2023-12-22T14:01:37.614Z,98747.19
2023-12-22T14:04:04.137Z,98759.78
2023-12-22T14:06:30.941Z,98704.16
2023-12-22T14:08:58.006Z,98767.41
2023-12-22T14:11:24.388Z,98737.59
2023-12-22T14:13:50.947Z,98777.88
2023-12-22T14:16:17.471Z,98789.06
2023-12-22T14:18:44.217Z,98795.97
2023-12-22T14:21:10.753Z,98786.34
2023-12-22T14:23:37.146Z,98799.28
2023-12-22T14:26:04.203Z,98751.09
2023-12-22T14:28:30.888Z,98793.22
2023-12-22T14:30:57.390Z,98731.81
2023-12-22T14:33:23.872Z,98717.72
2023-12-22T14:35:50.377Z,98745.50
2023-12-22T14:38:16.901Z,98715.53
2023-12-22T14:40:43.392Z,98746.00
2023-12-22T14:43:09.831Z,98770.22
2023-12-22T14:45:36.634Z,98735.31
2023-12-22T14:48:03.323Z,98790.78
2023-12-22T14:50:29.862Z,98777.59
2023-12-22T14:52:56.334Z,98793.41
2023-12-22T14:55:22.859Z,98794.94
2023-12-22T14:57:50.144Z,98801.16
2023-12-22T15:00:17.591Z,98813.59
2023-12-22T15:02:44.104Z,98752.16
2023-12-22T15:05:10.972Z,98795.41
2023-12-22T15:07:37.683Z,98817.03
2023-12-22T15:10:06.589Z,98768.66
2023-12-22T15:12:37.197Z,98757.56
2023-12-22T15:15:04.195Z,98820.28
2023-12-22T15:17:32.704Z,98813.94
2023-12-22T15:20:00.764Z,98831.72
2023-12-22T15:22:28.165Z,98763.94
2023-12-22T15:24:54.549Z,98774.31
2023-12-22T15:27:21.005Z,98824.88
2023-12-22T15:29:48.294Z,98822.06
2023-12-22T15:32:14.900Z,98800.50
2023-12-22T15:34:44.575Z,98781.19
2023-12-22T15:37:11.055Z,98795.19
2023-12-22T15:39:37.514Z,98811.13
2023-12-22T15:42:04.255Z,98772.81
2023-12-22T15:44:30.891Z,98820.72
2023-12-22T15:46:57.357Z,98803.84
2023-12-22T15:49:23.817Z,98785.44
2023-12-22T15:51:53.941Z,98813.09
2023-12-22T15:54:20.372Z,98825.53
2023-12-22T15:56:46.828Z,98784.16
2023-12-22T15:59:13.515Z,98792.66
2023-12-22T16:01:46.674Z,98771.47
2023-12-22T16:04:13.230Z,98765.16
2023-12-22T16:06:39.900Z,98764.09
2023-12-22T16:09:06.435Z,98787.47
2023-12-22T16:11:33.532Z,98836.94
2023-12-22T16:14:00.069Z,98809.91
2023-12-22T16:16:26.628Z,98815.34
2023-12-22T16:18:53.228Z,98788.63
2023-12-22T16:21:19.913Z,98722.59
2023-12-22T16:23:46.363Z,98847.91
2023-12-22T16:26:12.889Z,98800.41
2023-12-22T16:28:39.401Z,98744.72
2023-12-22T16:31:05.845Z,98804.69
2023-12-22T16:33:32.425Z,98774.00
2023-12-22T16:35:59.029Z,98789.91
2023-12-22T16:38:25.986Z,98832.94
2023-12-22T16:40:52.457Z,98781.88
2023-12-22T16:43:18.884Z,98788.50
2023-12-22T16:45:45.404Z,98782.38
2023-12-22T16:48:11.915Z,98818.56
2023-12-22T16:50:38.341Z,98835.97
2023-12-22T16:53:04.884Z,98812.34
2023-12-22T16:55:31.451Z,98798.91
2023-12-22T16:57:58.304Z,98838.00
2023-12-22T17:00:24.716Z,98794.06
2023-12-22T17:02:51.502Z,98846.38
2023-12-22T17:05:18.727Z,98815.66
2023-12-22T17:07:46.538Z,98846.59
2023-12-22T17:10:14.122Z,98857.03
2023-12-22T17:12:40.664Z,98859.03
2023-12-22T17:15:07.907Z,98756.72
2023-12-22T17:17:34.667Z,98846.88
2023-12-22T17:20:03.202Z,98801.66
2023-12-22T17:22:30.898Z,98835.91
2023-12-22T17:24:57.469Z,98872.63
2023-12-22T17:27:24.184Z,98855.69
2023-12-22T17:29:50.689Z,98851.78
2023-12-22T17:32:17.236Z,98803.38
2023-12-22T17:34:43.758Z,98863.16
2023-12-22T17:37:11.371Z,98867.19
2023-12-22T17:39:38.226Z,98834.94
2023-12-22T17:42:05.005Z,98863.78
2023-12-22T17:44:31.450Z,98843.72
2023-12-22T17:47:01.873Z,98842.31
2023-12-22T17:49:28.372Z,98805.09
2023-12-22T17:51:54.823Z,98788.31
2023-12-22T17:54:21.711Z,98793.41
2023-12-22T17:56:48.294Z,98783.13
2023-12-22T17:59:14.716Z,98797.47
2023-12-22T18:01:42.851Z,98840.16
2023-12-22T18:04:09.512Z,98825.44
2023-12-22T18:06:35.983Z,98794.34
2023-12-22T18:09:04.442Z,98771.75
2023-12-22T18:11:30.961Z,98843.13
2023-12-22T18:13:57.450Z,98855.19
2023-12-22T18:16:23.947Z,98846.19
2023-12-22T18:18:50.542Z,98856.59
2023-12-22T18:21:17.107Z,98820.81
2023-12-22T18:23:45.769Z,98844.81
2023-12-22T18:26:12.990Z,98815.13
2023-12-22T18:28:39.406Z,98866.03
2023-12-22T18:31:05.958Z,98864.25
2023-12-22T18:33:32.484Z,98817.50
2023-12-22T18:36:01.284Z,98779.81
2023-12-22T18:38:27.725Z,98793.13
2023-12-22T18:40:54.177Z,98807.66
2023-12-22T18:43:20.628Z,98831.28
2023-12-22T18:45:47.011Z,98792.72
2023-12-22T18:48:13.655Z,98807.72
2023-12-22T18:50:40.192Z,98844.66
2023-12-22T18:53:07.715Z,98855.47
2023-12-22T18:55:34.473Z,98865.31
2023-12-22T18:58:01.230Z,98855.13
2023-12-22T19:00:27.680Z,98808.19
2023-12-22T19:02:59.041Z,98887.91
2023-12-22T19:05:27.207Z,98887.38
2023-12-22T19:07:54.245Z,98809.53
2023-12-22T19:10:21.011Z,98827.25
2023-12-22T19:12:50.375Z,98873.84
2023-12-22T19:15:17.305Z,98855.81
2023-12-22T19:17:44.508Z,98863.69
2023-12-22T19:20:11.591Z,98851.72
2023-12-22T19:22:38.201Z,98860.63
2023-12-22T19:25:05.007Z,98800.94
2023-12-22T19:27:32.556Z,98873.59
2023-12-22T19:29:58.972Z,98832.28
2023-12-22T19:32:25.676Z,98865.03
2023-12-22T19:34:52.408Z,98887.44
2023-12-22T19:37:19.919Z,98829.78
2023-12-22T19:39:46.645Z,98892.63
2023-12-22T19:42:13.463Z,98894.44
2023-12-22T19:44:40.357Z,98908.66
2023-12-22T19:47:07.007Z,98870.97
2023-12-22T19:49:36.025Z,98927.63
2023-12-22T19:52:03.959Z,98921.75
2023-12-22T19:54:30.780Z,98925.06
2023-12-22T19:56:57.289Z,98889.88
2023-12-22T19:59:23.752Z,98927.88
2023-12-22T20:01:50.187Z,98943.91
2023-12-22T20:04:16.766Z,98932.31
2023-12-22T20:06:45.270Z,98939.78
2023-12-22T20:09:11.792Z,98925.06
2023-12-22T20:11:38.168Z,98963.22
2023-12-22T20:14:04.759Z,98955.06
2023-12-22T20:16:31.225Z,98969.94
2023-12-22T20:18:58.413Z,98956.56
2023-12-22T20:21:25.038Z,98955.59
2023-12-22T20:23:52.985Z,98963.22
2023-12-22T20:26:19.700Z,98960.78
2023-12-22T20:28:46.247Z,98964.19
2023-12-22T20:31:12.746Z,98915.16
2023-12-22T20:33:39.346Z,98969.56
2023-12-22T20:36:06.208Z,98951.97
2023-12-22T20:38:32.599Z,98971.34
2023-12-22T20:40:58.998Z,98964.75
2023-12-22T20:43:25.627Z,98944.38
2023-12-22T20:45:52.728Z,98956.09
2023-12-22T20:48:19.397Z,98952.94
2023-12-22T20:50:45.858Z,98952.00
2023-12-22T20:53:12.429Z,98955.91
2023-12-22T20:55:40.325Z,98957.06
2023-12-22T20:58:07.784Z,98962.16
2023-12-22T21:00:34.981Z,98941.06
2023-12-22T21:03:01.894Z,98922.88
2023-12-22T21:05:29.634Z,98963.81
2023-12-22T21:07:56.888Z,98903.97
2023-12-22T21:10:23.551Z,98969.03
2023-12-22T21:12:50.208Z,98961.91
2023-12-22T21:15:16.681Z,98939.88
2023-12-22T21:17:43.405Z,99034.22
2023-12-22T21:20:10.551Z,98978.28
2023-12-22T21:22:37.005Z,99031.84
2023-12-22T21:25:03.580Z,99044.41
2023-12-22T21:27:30.111Z,98999.09
2023-12-22T21:29:57.090Z,99043.63
2023-12-22T21:32:23.557Z,99041.06
2023-12-22T21:34:49.988Z,99074.22
2023-12-22T21:37:16.878Z,99088.31
2023-12-22T21:39:43.366Z,99076.47
2023-12-22T21:42:09.739Z,99095.41
2023-12-22T21:44:42.838Z,99091.31
2023-12-22T21:47:12.374Z,99111.94
2023-12-22T21:49:42.519Z,99105.28
2023-12-22T21:52:09.115Z,99107.69
2023-12-22T21:54:36.295Z,99061.72
2023-12-22T21:57:04.257Z,99168.13
2023-12-22T21:59:30.943Z,99159.22
2023-12-22T22:01:57.455Z,99164.06
2023-12-22T22:04:27.198Z,99150.63
2023-12-22T22:06:57.043Z,99136.00
2023-12-22T22:09:23.458Z,99174.34
2023-12-22T22:11:49.840Z,99181.53
2023-12-22T22:14:25.981Z,99139.72
2023-12-22T22:16:56.294Z,99125.22
2023-12-22T22:19:23.287Z,99147.97
2023-12-22T22:21:49.789Z,99211.06
2023-12-22T22:24:16.245Z,99130.63
2023-12-22T22:26:42.764Z,99204.25
2023-12-22T22:29:09.797Z,99211.88
2023-12-22T22:31:43.176Z,99150.91
2023-12-22T22:34:10.977Z,99210.25
2023-12-22T22:36:38.163Z,99201.50
2023-12-22T22:39:05.257Z,99218.00
2023-12-22T22:41:32.131Z,99238.84
2023-12-22T22:43:58.734Z,99213.00
2023-12-22T22:46:25.190Z,99194.41
2023-12-22T22:48:51.676Z,99200.72
2023-12-22T22:51:25.948Z,99271.50
2023-12-22T22:53:52.815Z,99281.50
2023-12-22T22:56:20.134Z,99273.41
2023-12-22T22:58:46.624Z,99266.31
2023-12-22T23:01:13.212Z,99219.34
2023-12-22T23:03:39.849Z,99236.72
2023-12-22T23:06:07.526Z,99288.78
2023-12-22T23:08:34.547Z,99258.31
2023-12-22T23:11:02.444Z,99293.41
2023-12-22T23:13:29.171Z,99308.75
2023-12-22T23:15:55.607Z,99317.84
2023-12-22T23:18:22.220Z,99267.97
2023-12-22T23:20:48.677Z,99296.88
2023-12-22T23:23:15.304Z,99303.88
2023-12-22T23:25:41.803Z,99308.63
2023-12-22T23:28:08.639Z,99253.25
2023-12-22T23:30:35.086Z,99313.97
2023-12-22T23:33:02.077Z,99327.66
2023-12-22T23:35:28.848Z,99344.97
2023-12-22T23:37:55.378Z,99368.56
2023-12-22T23:40:21.995Z,99366.47
2023-12-22T23:42:48.422Z,99367.34
2023-12-22T23:45:15.037Z,99301.88
2023-12-22T23:47:41.525Z,99372.75
2023-12-22T23:50:08.812Z,99318.09
2023-12-22T23:52:35.547Z,99365.91
2023-12-22T23:55:02.019Z,99373.97
2023-12-22T23:57:28.459Z,99394.81
2023-12-22T23:59:54.832Z,99401.41
